sensor_id;sensor_type;location;lat;lon;timestamp;P1;durP1;ratioP1;P2;durP2;ratioP2
61702;SDS011;47622;47.726;3.298;2023-05-15T00:01:19;17.95;;;14.27;;
61702;SDS011;47622;47.726;3.298;2023-05-15T00:03:46;19.05;;;15.23;;
61702;SDS011;47622;47.726;3.298;2023-05-15T00:06:12;19.27;;;15.15;;
61702;SDS011;47622;47.726;3.298;2023-05-15T00:08:37;19.02;;;14.98;;
61702;SDS011;47622;47.726;3.298;2023-05-15T00:11:03;19.20;;;15.23;;
61702;SDS011;47622;47.726;3.298;2023-05-15T00:13:28;21.65;;;15.23;;
61702;SDS011;47622;47.726;3.298;2023-05-15T00:15:54;18.13;;;14.68;;
61702;SDS011;47622;47.726;3.298;2023-05-15T00:18:20;19.45;;;14.77;;
61702;SDS011;47622;47.726;3.298;2023-05-15T00:20:46;18.48;;;14.65;;
61702;SDS011;47622;47.726;3.298;2023-05-15T00:23:11;19.25;;;15.00;;
61702;SDS011;47622;47.726;3.298;2023-05-15T00:25:37;18.33;;;14.68;;
61702;SDS011;47622;47.726;3.298;2023-05-15T00:28:02;19.38;;;15.10;;
61702;SDS011;47622;47.726;3.298;2023-05-15T00:30:28;17.67;;;13.65;;
61702;SDS011;47622;47.726;3.298;2023-05-15T00:32:53;18.80;;;14.50;;
61702;SDS011;47622;47.726;3.298;2023-05-15T00:35:19;18.65;;;14.25;;
61702;SDS011;47622;47.726;3.298;2023-05-15T00:37:44;19.10;;;14.68;;
61702;SDS011;47622;47.726;3.298;2023-05-15T00:40:11;17.85;;;14.20;;
61702;SDS011;47622;47.726;3.298;2023-05-15T00:42:42;19.30;;;15.32;;
61702;SDS011;47622;47.726;3.298;2023-05-15T00:45:09;17.77;;;14.00;;
61702;SDS011;47622;47.726;3.298;2023-05-15T00:47:37;18.95;;;15.00;;
61702;SDS011;47622;47.726;3.298;2023-05-15T00:50:04;17.45;;;14.10;;
61702;SDS011;47622;47.726;3.298;2023-05-15T00:52:32;17.55;;;14.13;;
61702;SDS011;47622;47.726;3.298;2023-05-15T00:54:57;18.85;;;14.77;;
61702;SDS011;47622;47.726;3.298;2023-05-15T00:57:23;18.00;;;13.77;;
61702;SDS011;47622;47.726;3.298;2023-05-15T00:59:51;17.35;;;13.57;;
61702;SDS011;47622;47.726;3.298;2023-05-15T01:02:18;16.42;;;13.38;;
61702;SDS011;47622;47.726;3.298;2023-05-15T01:04:43;17.65;;;13.75;;
61702;SDS011;47622;47.726;3.298;2023-05-15T01:07:10;16.35;;;12.68;;
61702;SDS011;47622;47.726;3.298;2023-05-15T01:09:35;16.13;;;12.80;;
61702;SDS011;47622;47.726;3.298;2023-05-15T01:12:04;15.43;;;12.82;;
61702;SDS011;47622;47.726;3.298;2023-05-15T01:14:31;14.00;;;11.68;;
61702;SDS011;47622;47.726;3.298;2023-05-15T01:16:57;15.02;;;12.25;;
61702;SDS011;47622;47.726;3.298;2023-05-15T01:19:22;14.48;;;12.48;;
61702;SDS011;47622;47.726;3.298;2023-05-15T01:29:54;17.90;;;11.48;;
61702;SDS011;47622;47.726;3.298;2023-05-15T01:35:27;15.15;;;12.45;;
61702;SDS011;47622;47.726;3.298;2023-05-15T01:38:12;14.82;;;11.45;;
61702;SDS011;47622;47.726;3.298;2023-05-15T01:41:01;13.13;;;11.13;;
61702;SDS011;47622;47.726;3.298;2023-05-15T01:43:38;18.45;;;14.32;;
61702;SDS011;47622;47.726;3.298;2023-05-15T01:46:05;16.77;;;12.88;;
61702;SDS011;47622;47.726;3.298;2023-05-15T01:48:32;15.30;;;12.38;;
61702;SDS011;47622;47.726;3.298;2023-05-15T01:51:00;15.07;;;12.32;;
61702;SDS011;47622;47.726;3.298;2023-05-15T01:53:29;17.42;;;13.88;;
61702;SDS011;47622;47.726;3.298;2023-05-15T01:55:57;15.90;;;12.18;;
61702;SDS011;47622;47.726;3.298;2023-05-15T01:58:24;15.70;;;12.82;;
61702;SDS011;47622;47.726;3.298;2023-05-15T02:00:51;15.80;;;12.73;;
61702;SDS011;47622;47.726;3.298;2023-05-15T02:03:17;14.85;;;12.07;;
61702;SDS011;47622;47.726;3.298;2023-05-15T02:05:45;15.38;;;12.13;;
61702;SDS011;47622;47.726;3.298;2023-05-15T02:08:11;13.57;;;11.75;;
61702;SDS011;47622;47.726;3.298;2023-05-15T02:10:37;15.10;;;12.88;;
61702;SDS011;47622;47.726;3.298;2023-05-15T02:13:04;14.15;;;12.13;;
61702;SDS011;47622;47.726;3.298;2023-05-15T02:15:33;14.70;;;12.60;;
61702;SDS011;47622;47.726;3.298;2023-05-15T02:18:00;12.68;;;10.82;;
61702;SDS011;47622;47.726;3.298;2023-05-15T02:20:25;16.63;;;12.45;;
61702;SDS011;47622;47.726;3.298;2023-05-15T02:22:51;13.88;;;11.35;;
61702;SDS011;47622;47.726;3.298;2023-05-15T02:25:17;16.63;;;12.73;;
61702;SDS011;47622;47.726;3.298;2023-05-15T02:36:05;16.50;;;11.82;;
61702;SDS011;47622;47.726;3.298;2023-05-15T02:38:51;14.45;;;12.25;;
61702;SDS011;47622;47.726;3.298;2023-05-15T02:41:17;15.15;;;12.00;;
61702;SDS011;47622;47.726;3.298;2023-05-15T02:43:44;15.00;;;11.20;;
61702;SDS011;47622;47.726;3.298;2023-05-15T02:46:13;15.43;;;12.10;;
61702;SDS011;47622;47.726;3.298;2023-05-15T02:48:40;12.80;;;10.85;;
61702;SDS011;47622;47.726;3.298;2023-05-15T02:51:07;18.58;;;12.43;;
61702;SDS011;47622;47.726;3.298;2023-05-15T02:53:38;16.17;;;12.02;;
61702;SDS011;47622;47.726;3.298;2023-05-15T02:56:07;17.00;;;12.60;;
61702;SDS011;47622;47.726;3.298;2023-05-15T02:58:34;16.08;;;11.95;;
61702;SDS011;47622;47.726;3.298;2023-05-15T03:01:00;18.88;;;13.07;;
61702;SDS011;47622;47.726;3.298;2023-05-15T03:03:26;12.88;;;10.70;;
61702;SDS011;47622;47.726;3.298;2023-05-15T03:05:52;16.00;;;11.95;;
61702;SDS011;47622;47.726;3.298;2023-05-15T03:08:17;14.13;;;11.73;;
61702;SDS011;47622;47.726;3.298;2023-05-15T03:10:43;15.80;;;11.32;;
61702;SDS011;47622;47.726;3.298;2023-05-15T03:13:09;16.83;;;11.60;;
61702;SDS011;47622;47.726;3.298;2023-05-15T03:15:35;15.50;;;12.23;;
61702;SDS011;47622;47.726;3.298;2023-05-15T03:18:00;15.63;;;11.88;;
61702;SDS011;47622;47.726;3.298;2023-05-15T03:20:26;16.58;;;12.30;;
61702;SDS011;47622;47.726;3.298;2023-05-15T03:22:52;18.77;;;12.07;;
61702;SDS011;47622;47.726;3.298;2023-05-15T03:25:17;18.35;;;12.52;;
61702;SDS011;47622;47.726;3.298;2023-05-15T03:27:43;15.00;;;11.77;;
61702;SDS011;47622;47.726;3.298;2023-05-15T03:30:09;18.05;;;13.10;;
61702;SDS011;47622;47.726;3.298;2023-05-15T03:32:35;17.02;;;12.25;;
61702;SDS011;47622;47.726;3.298;2023-05-15T03:35:00;15.38;;;12.05;;
61702;SDS011;47622;47.726;3.298;2023-05-15T03:37:26;18.33;;;13.65;;
61702;SDS011;47622;47.726;3.298;2023-05-15T03:39:51;15.25;;;11.90;;
61702;SDS011;47622;47.726;3.298;2023-05-15T03:42:17;16.55;;;12.98;;
61702;SDS011;47622;47.726;3.298;2023-05-15T03:44:47;16.25;;;12.10;;
61702;SDS011;47622;47.726;3.298;2023-05-15T03:47:16;17.88;;;12.98;;
61702;SDS011;47622;47.726;3.298;2023-05-15T03:49:42;15.18;;;12.15;;
61702;SDS011;47622;47.726;3.298;2023-05-15T03:52:07;17.05;;;12.75;;
61702;SDS011;47622;47.726;3.298;2023-05-15T03:54:34;16.20;;;12.55;;
61702;SDS011;47622;47.726;3.298;2023-05-15T03:56:59;16.10;;;11.90;;
61702;SDS011;47622;47.726;3.298;2023-05-15T03:59:25;16.38;;;12.38;;
61702;SDS011;47622;47.726;3.298;2023-05-15T04:01:50;17.48;;;12.88;;
61702;SDS011;47622;47.726;3.298;2023-05-15T04:04:16;17.60;;;13.35;;
61702;SDS011;47622;47.726;3.298;2023-05-15T04:06:41;20.48;;;13.60;;
61702;SDS011;47622;47.726;3.298;2023-05-15T04:09:07;17.08;;;12.32;;
61702;SDS011;47622;47.726;3.298;2023-05-15T04:11:33;15.73;;;11.82;;
61702;SDS011;47622;47.726;3.298;2023-05-15T04:13:59;15.98;;;11.73;;
61702;SDS011;47622;47.726;3.298;2023-05-15T04:16:25;15.13;;;11.90;;
61702;SDS011;47622;47.726;3.298;2023-05-15T04:18:50;16.38;;;12.23;;
61702;SDS011;47622;47.726;3.298;2023-05-15T04:21:16;17.42;;;12.50;;
61702;SDS011;47622;47.726;3.298;2023-05-15T04:23:41;16.40;;;12.85;;
61702;SDS011;47622;47.726;3.298;2023-05-15T04:26:07;16.65;;;12.43;;
61702;SDS011;47622;47.726;3.298;2023-05-15T04:28:33;15.23;;;11.85;;
61702;SDS011;47622;47.726;3.298;2023-05-15T04:30:59;17.00;;;12.05;;
61702;SDS011;47622;47.726;3.298;2023-05-15T04:33:24;17.88;;;13.25;;
61702;SDS011;47622;47.726;3.298;2023-05-15T04:35:50;17.38;;;12.82;;
61702;SDS011;47622;47.726;3.298;2023-05-15T04:38:16;18.88;;;12.45;;
61702;SDS011;47622;47.726;3.298;2023-05-15T04:40:42;17.08;;;12.73;;
61702;SDS011;47622;47.726;3.298;2023-05-15T04:43:08;22.00;;;12.20;;
61702;SDS011;47622;47.726;3.298;2023-05-15T04:45:33;17.75;;;12.25;;
61702;SDS011;47622;47.726;3.298;2023-05-15T04:47:59;17.98;;;12.77;;
61702;SDS011;47622;47.726;3.298;2023-05-15T04:50:25;17.98;;;13.27;;
61702;SDS011;47622;47.726;3.298;2023-05-15T04:52:50;18.33;;;13.15;;
61702;SDS011;47622;47.726;3.298;2023-05-15T04:55:16;21.40;;;14.70;;
61702;SDS011;47622;47.726;3.298;2023-05-15T04:57:41;20.30;;;13.45;;
61702;SDS011;47622;47.726;3.298;2023-05-15T05:00:07;19.27;;;14.20;;
61702;SDS011;47622;47.726;3.298;2023-05-15T05:02:36;17.05;;;12.68;;
61702;SDS011;47622;47.726;3.298;2023-05-15T05:05:04;18.95;;;13.73;;
61702;SDS011;47622;47.726;3.298;2023-05-15T05:07:30;16.38;;;11.68;;
61702;SDS011;47622;47.726;3.298;2023-05-15T05:09:56;16.75;;;12.50;;
61702;SDS011;47622;47.726;3.298;2023-05-15T05:12:21;15.80;;;12.40;;
61702;SDS011;47622;47.726;3.298;2023-05-15T05:14:47;20.17;;;14.10;;
61702;SDS011;47622;47.726;3.298;2023-05-15T05:17:12;21.50;;;14.63;;
61702;SDS011;47622;47.726;3.298;2023-05-15T05:19:38;18.88;;;13.95;;
61702;SDS011;47622;47.726;3.298;2023-05-15T05:22:04;22.63;;;15.10;;
61702;SDS011;47622;47.726;3.298;2023-05-15T05:24:30;21.10;;;14.52;;
61702;SDS011;47622;47.726;3.298;2023-05-15T05:26:56;20.33;;;14.60;;
61702;SDS011;47622;47.726;3.298;2023-05-15T05:29:22;19.83;;;14.52;;
61702;SDS011;47622;47.726;3.298;2023-05-15T05:31:48;21.70;;;15.15;;
61702;SDS011;47622;47.726;3.298;2023-05-15T05:34:14;20.77;;;15.02;;
61702;SDS011;47622;47.726;3.298;2023-05-15T05:36:39;20.58;;;14.93;;
61702;SDS011;47622;47.726;3.298;2023-05-15T05:39:05;22.05;;;14.80;;
61702;SDS011;47622;47.726;3.298;2023-05-15T05:41:30;22.50;;;15.93;;
61702;SDS011;47622;47.726;3.298;2023-05-15T05:43:56;23.75;;;16.23;;
61702;SDS011;47622;47.726;3.298;2023-05-15T05:46:22;19.77;;;14.18;;
61702;SDS011;47622;47.726;3.298;2023-05-15T05:48:47;21.17;;;16.05;;
61702;SDS011;47622;47.726;3.298;2023-05-15T05:51:13;19.63;;;14.68;;
61702;SDS011;47622;47.726;3.298;2023-05-15T05:53:39;20.50;;;15.32;;
61702;SDS011;47622;47.726;3.298;2023-05-15T05:56:05;19.38;;;14.35;;
61702;SDS011;47622;47.726;3.298;2023-05-15T05:58:31;20.60;;;15.68;;
61702;SDS011;47622;47.726;3.298;2023-05-15T06:00:56;22.58;;;16.80;;
61702;SDS011;47622;47.726;3.298;2023-05-15T06:03:22;22.70;;;16.15;;
61702;SDS011;47622;47.726;3.298;2023-05-15T06:05:48;21.85;;;16.30;;
61702;SDS011;47622;47.726;3.298;2023-05-15T06:08:14;22.70;;;16.45;;
61702;SDS011;47622;47.726;3.298;2023-05-15T06:10:39;22.50;;;17.60;;
61702;SDS011;47622;47.726;3.298;2023-05-15T06:13:06;22.17;;;16.70;;
61702;SDS011;47622;47.726;3.298;2023-05-15T06:15:32;26.80;;;16.67;;
61702;SDS011;47622;47.726;3.298;2023-05-15T06:17:57;22.25;;;16.40;;
61702;SDS011;47622;47.726;3.298;2023-05-15T06:20:23;22.15;;;16.75;;
61702;SDS011;47622;47.726;3.298;2023-05-15T06:22:48;23.27;;;17.02;;
61702;SDS011;47622;47.726;3.298;2023-05-15T06:25:14;22.35;;;16.95;;
61702;SDS011;47622;47.726;3.298;2023-05-15T06:27:39;26.63;;;16.42;;
61702;SDS011;47622;47.726;3.298;2023-05-15T06:30:07;24.08;;;17.50;;
61702;SDS011;47622;47.726;3.298;2023-05-15T06:32:33;46.17;;;18.08;;
61702;SDS011;47622;47.726;3.298;2023-05-15T06:34:59;36.70;;;17.45;;
61702;SDS011;47622;47.726;3.298;2023-05-15T06:37:25;20.90;;;16.08;;
61702;SDS011;47622;47.726;3.298;2023-05-15T06:39:52;24.08;;;16.42;;
61702;SDS011;47622;47.726;3.298;2023-05-15T06:42:18;22.17;;;16.38;;
61702;SDS011;47622;47.726;3.298;2023-05-15T06:44:44;22.88;;;16.50;;
61702;SDS011;47622;47.726;3.298;2023-05-15T06:47:11;21.60;;;17.35;;
61702;SDS011;47622;47.726;3.298;2023-05-15T06:49:37;21.77;;;15.80;;
61702;SDS011;47622;47.726;3.298;2023-05-15T06:52:02;22.70;;;16.75;;
61702;SDS011;47622;47.726;3.298;2023-05-15T06:54:28;24.30;;;18.35;;
61702;SDS011;47622;47.726;3.298;2023-05-15T06:56:54;25.02;;;18.05;;
61702;SDS011;47622;47.726;3.298;2023-05-15T06:59:19;24.13;;;17.67;;
61702;SDS011;47622;47.726;3.298;2023-05-15T07:01:45;24.92;;;17.70;;
61702;SDS011;47622;47.726;3.298;2023-05-15T07:04:10;23.90;;;17.95;;
61702;SDS011;47622;47.726;3.298;2023-05-15T07:06:36;23.15;;;17.25;;
61702;SDS011;47622;47.726;3.298;2023-05-15T07:09:01;23.88;;;18.67;;
61702;SDS011;47622;47.726;3.298;2023-05-15T07:11:27;21.60;;;17.40;;
61702;SDS011;47622;47.726;3.298;2023-05-15T07:16:19;26.60;;;19.42;;
61702;SDS011;47622;47.726;3.298;2023-05-15T07:18:44;23.50;;;19.13;;
61702;SDS011;47622;47.726;3.298;2023-05-15T07:21:10;25.80;;;19.50;;
61702;SDS011;47622;47.726;3.298;2023-05-15T07:23:36;28.42;;;19.48;;
61702;SDS011;47622;47.726;3.298;2023-05-15T07:26:01;26.90;;;20.13;;
61702;SDS011;47622;47.726;3.298;2023-05-15T07:28:27;25.40;;;18.67;;
61702;SDS011;47622;47.726;3.298;2023-05-15T07:30:52;19.88;;;16.20;;
61702;SDS011;47622;47.726;3.298;2023-05-15T07:33:18;21.95;;;17.50;;
61702;SDS011;47622;47.726;3.298;2023-05-15T07:35:43;21.02;;;16.65;;
61702;SDS011;47622;47.726;3.298;2023-05-15T07:38:11;18.67;;;15.80;;
61702;SDS011;47622;47.726;3.298;2023-05-15T07:40:36;20.00;;;16.95;;
61702;SDS011;47622;47.726;3.298;2023-05-15T07:43:02;21.52;;;16.80;;
61702;SDS011;47622;47.726;3.298;2023-05-15T07:45:29;22.58;;;17.52;;
61702;SDS011;47622;47.726;3.298;2023-05-15T07:47:54;20.20;;;16.35;;
61702;SDS011;47622;47.726;3.298;2023-05-15T07:50:22;18.70;;;15.82;;
61702;SDS011;47622;47.726;3.298;2023-05-15T07:52:48;19.83;;;16.00;;
61702;SDS011;47622;47.726;3.298;2023-05-15T07:55:14;19.60;;;16.90;;
61702;SDS011;47622;47.726;3.298;2023-05-15T07:57:39;21.10;;;15.90;;
61702;SDS011;47622;47.726;3.298;2023-05-15T08:02:35;23.80;;;16.65;;
61702;SDS011;47622;47.726;3.298;2023-05-15T08:05:00;20.15;;;15.00;;
61702;SDS011;47622;47.726;3.298;2023-05-15T08:12:21;20.45;;;16.35;;
61702;SDS011;47622;47.726;3.298;2023-05-15T08:14:50;16.02;;;14.00;;
61702;SDS011;47622;47.726;3.298;2023-05-15T08:22:09;16.70;;;14.38;;
61702;SDS011;47622;47.726;3.298;2023-05-15T08:24:35;20.88;;;17.10;;
61702;SDS011;47622;47.726;3.298;2023-05-15T08:27:03;21.13;;;17.48;;
61702;SDS011;47622;47.726;3.298;2023-05-15T08:29:30;19.55;;;16.30;;
61702;SDS011;47622;47.726;3.298;2023-05-15T08:31:57;22.67;;;18.52;;
61702;SDS011;47622;47.726;3.298;2023-05-15T08:34:23;21.38;;;16.23;;
61702;SDS011;47622;47.726;3.298;2023-05-15T08:36:49;20.80;;;16.10;;
61702;SDS011;47622;47.726;3.298;2023-05-15T08:39:14;21.98;;;18.48;;
61702;SDS011;47622;47.726;3.298;2023-05-15T08:44:45;21.15;;;18.50;;
61702;SDS011;47622;47.726;3.298;2023-05-15T08:47:10;19.48;;;17.20;;
61702;SDS011;47622;47.726;3.298;2023-05-15T08:52:28;23.27;;;18.10;;
61702;SDS011;47622;47.726;3.298;2023-05-15T08:54:54;25.38;;;19.58;;
61702;SDS011;47622;47.726;3.298;2023-05-15T08:57:20;27.25;;;19.90;;
61702;SDS011;47622;47.726;3.298;2023-05-15T08:59:47;24.33;;;20.73;;
61702;SDS011;47622;47.726;3.298;2023-05-15T09:02:14;25.17;;;20.33;;
61702;SDS011;47622;47.726;3.298;2023-05-15T09:04:41;24.75;;;20.48;;
61702;SDS011;47622;47.726;3.298;2023-05-15T09:07:06;26.13;;;21.60;;
61702;SDS011;47622;47.726;3.298;2023-05-15T09:09:34;25.60;;;21.25;;
61702;SDS011;47622;47.726;3.298;2023-05-15T09:12:01;31.35;;;22.45;;
61702;SDS011;47622;47.726;3.298;2023-05-15T09:14:31;31.10;;;24.02;;
61702;SDS011;47622;47.726;3.298;2023-05-15T09:16:56;31.15;;;24.05;;
61702;SDS011;47622;47.726;3.298;2023-05-15T09:19:22;32.70;;;22.40;;
61702;SDS011;47622;47.726;3.298;2023-05-15T09:21:47;33.25;;;24.88;;
61702;SDS011;47622;47.726;3.298;2023-05-15T09:24:14;33.58;;;25.27;;
61702;SDS011;47622;47.726;3.298;2023-05-15T09:26:47;39.10;;;25.98;;
61702;SDS011;47622;47.726;3.298;2023-05-15T09:29:26;33.65;;;24.65;;
61702;SDS011;47622;47.726;3.298;2023-05-15T09:31:53;42.40;;;26.67;;
61702;SDS011;47622;47.726;3.298;2023-05-15T09:34:27;38.25;;;26.70;;
61702;SDS011;47622;47.726;3.298;2023-05-15T09:36:54;37.55;;;25.58;;
61702;SDS011;47622;47.726;3.298;2023-05-15T09:39:23;37.40;;;25.42;;
61702;SDS011;47622;47.726;3.298;2023-05-15T09:41:51;40.80;;;26.13;;
61702;SDS011;47622;47.726;3.298;2023-05-15T09:44:18;37.45;;;24.75;;
61702;SDS011;47622;47.726;3.298;2023-05-15T09:46:48;34.17;;;22.23;;
61702;SDS011;47622;47.726;3.298;2023-05-15T09:49:14;36.10;;;23.30;;
61702;SDS011;47622;47.726;3.298;2023-05-15T09:51:42;33.65;;;24.30;;
61702;SDS011;47622;47.726;3.298;2023-05-15T09:54:13;35.80;;;24.00;;
61702;SDS011;47622;47.726;3.298;2023-05-15T09:56:41;39.97;;;24.98;;
61702;SDS011;47622;47.726;3.298;2023-05-15T09:59:08;34.45;;;23.02;;
61702;SDS011;47622;47.726;3.298;2023-05-15T10:01:38;36.58;;;23.30;;
61702;SDS011;47622;47.726;3.298;2023-05-15T10:04:07;38.67;;;23.85;;
61702;SDS011;47622;47.726;3.298;2023-05-15T10:06:37;37.00;;;24.08;;
61702;SDS011;47622;47.726;3.298;2023-05-15T10:09:08;35.45;;;23.30;;
61702;SDS011;47622;47.726;3.298;2023-05-15T10:11:38;35.38;;;23.67;;
61702;SDS011;47622;47.726;3.298;2023-05-15T10:14:05;35.03;;;21.13;;
61702;SDS011;47622;47.726;3.298;2023-05-15T10:16:33;37.55;;;22.85;;
61702;SDS011;47622;47.726;3.298;2023-05-15T10:19:02;34.22;;;21.83;;
61702;SDS011;47622;47.726;3.298;2023-05-15T10:21:31;33.58;;;22.13;;
61702;SDS011;47622;47.726;3.298;2023-05-15T10:23:59;35.08;;;22.90;;
61702;SDS011;47622;47.726;3.298;2023-05-15T10:29:01;35.08;;;21.58;;
61702;SDS011;47622;47.726;3.298;2023-05-15T10:31:30;34.97;;;21.65;;
61702;SDS011;47622;47.726;3.298;2023-05-15T10:33:56;35.45;;;21.33;;
61702;SDS011;47622;47.726;3.298;2023-05-15T10:36:23;31.60;;;20.02;;
61702;SDS011;47622;47.726;3.298;2023-05-15T10:38:49;29.20;;;19.80;;
61702;SDS011;47622;47.726;3.298;2023-05-15T10:41:16;30.75;;;19.83;;
61702;SDS011;47622;47.726;3.298;2023-05-15T10:43:41;31.17;;;19.70;;
61702;SDS011;47622;47.726;3.298;2023-05-15T10:46:08;27.85;;;19.95;;
61702;SDS011;47622;47.726;3.298;2023-05-15T10:48:34;25.38;;;17.70;;
61702;SDS011;47622;47.726;3.298;2023-05-15T10:51:00;26.85;;;18.27;;
61702;SDS011;47622;47.726;3.298;2023-05-15T10:53:26;24.92;;;16.52;;
61702;SDS011;47622;47.726;3.298;2023-05-15T10:55:51;26.15;;;16.77;;
61702;SDS011;47622;47.726;3.298;2023-05-15T10:58:21;21.20;;;15.73;;
61702;SDS011;47622;47.726;3.298;2023-05-15T11:00:48;21.95;;;15.18;;
61702;SDS011;47622;47.726;3.298;2023-05-15T11:03:13;23.00;;;16.83;;
61702;SDS011;47622;47.726;3.298;2023-05-15T11:08:31;25.73;;;16.60;;
61702;SDS011;47622;47.726;3.298;2023-05-15T11:10:56;24.00;;;16.65;;
61702;SDS011;47622;47.726;3.298;2023-05-15T11:13:22;25.88;;;16.98;;
61702;SDS011;47622;47.726;3.298;2023-05-15T11:15:47;24.65;;;16.50;;
61702;SDS011;47622;47.726;3.298;2023-05-15T11:18:13;25.40;;;17.20;;
61702;SDS011;47622;47.726;3.298;2023-05-15T11:20:40;25.67;;;17.83;;
61702;SDS011;47622;47.726;3.298;2023-05-15T11:23:07;27.60;;;17.88;;
61702;SDS011;47622;47.726;3.298;2023-05-15T11:25:33;30.25;;;19.17;;
61702;SDS011;47622;47.726;3.298;2023-05-15T11:28:01;30.50;;;19.23;;
61702;SDS011;47622;47.726;3.298;2023-05-15T11:30:39;28.92;;;17.13;;
61702;SDS011;47622;47.726;3.298;2023-05-15T11:33:09;31.98;;;19.90;;
61702;SDS011;47622;47.726;3.298;2023-05-15T11:35:39;28.48;;;18.02;;
61702;SDS011;47622;47.726;3.298;2023-05-15T11:38:17;26.90;;;17.57;;
61702;SDS011;47622;47.726;3.298;2023-05-15T11:40:53;29.75;;;18.67;;
61702;SDS011;47622;47.726;3.298;2023-05-15T11:43:24;28.35;;;18.80;;
61702;SDS011;47622;47.726;3.298;2023-05-15T11:45:52;25.58;;;16.73;;
61702;SDS011;47622;47.726;3.298;2023-05-15T11:48:22;25.15;;;16.83;;
61702;SDS011;47622;47.726;3.298;2023-05-15T11:53:20;26.90;;;18.00;;
61702;SDS011;47622;47.726;3.298;2023-05-15T11:55:48;26.15;;;17.77;;
61702;SDS011;47622;47.726;3.298;2023-05-15T11:58:17;26.13;;;16.00;;
61702;SDS011;47622;47.726;3.298;2023-05-15T12:00:47;24.23;;;15.88;;
61702;SDS011;47622;47.726;3.298;2023-05-15T12:03:24;21.65;;;15.38;;
61702;SDS011;47622;47.726;3.298;2023-05-15T12:06:00;24.38;;;16.33;;
61702;SDS011;47622;47.726;3.298;2023-05-15T12:08:33;18.92;;;13.70;;
61702;SDS011;47622;47.726;3.298;2023-05-15T12:11:04;22.50;;;16.52;;
61702;SDS011;47622;47.726;3.298;2023-05-15T12:13:31;21.92;;;14.18;;
61702;SDS011;47622;47.726;3.298;2023-05-15T12:15:57;23.25;;;15.25;;
61702;SDS011;47622;47.726;3.298;2023-05-15T12:18:23;20.98;;;15.35;;
61702;SDS011;47622;47.726;3.298;2023-05-15T12:20:52;21.25;;;14.98;;
61702;SDS011;47622;47.726;3.298;2023-05-15T12:23:20;21.30;;;14.43;;
61702;SDS011;47622;47.726;3.298;2023-05-15T12:25:47;18.60;;;13.77;;
61702;SDS011;47622;47.726;3.298;2023-05-15T12:28:15;20.38;;;13.70;;
61702;SDS011;47622;47.726;3.298;2023-05-15T12:30:41;20.17;;;14.50;;
61702;SDS011;47622;47.726;3.298;2023-05-15T12:33:07;22.75;;;14.32;;
61702;SDS011;47622;47.726;3.298;2023-05-15T12:35:34;22.98;;;14.07;;
61702;SDS011;47622;47.726;3.298;2023-05-15T12:38:04;24.65;;;15.25;;
61702;SDS011;47622;47.726;3.298;2023-05-15T12:40:35;23.77;;;15.63;;
61702;SDS011;47622;47.726;3.298;2023-05-15T12:43:04;31.92;;;17.25;;
61702;SDS011;47622;47.726;3.298;2023-05-15T12:45:31;20.85;;;14.25;;
61702;SDS011;47622;47.726;3.298;2023-05-15T12:47:59;21.90;;;14.35;;
61702;SDS011;47622;47.726;3.298;2023-05-15T12:50:27;22.38;;;15.35;;
61702;SDS011;47622;47.726;3.298;2023-05-15T12:52:55;36.33;;;17.08;;
61702;SDS011;47622;47.726;3.298;2023-05-15T12:55:25;28.45;;;15.73;;
61702;SDS011;47622;47.726;3.298;2023-05-15T12:57:59;23.92;;;15.52;;
61702;SDS011;47622;47.726;3.298;2023-05-15T13:00:33;23.52;;;14.48;;
61702;SDS011;47622;47.726;3.298;2023-05-15T13:03:00;23.80;;;15.30;;
61702;SDS011;47622;47.726;3.298;2023-05-15T13:05:26;20.60;;;15.00;;
61702;SDS011;47622;47.726;3.298;2023-05-15T13:07:53;21.95;;;13.95;;
61702;SDS011;47622;47.726;3.298;2023-05-15T13:10:22;24.73;;;15.60;;
61702;SDS011;47622;47.726;3.298;2023-05-15T13:12:50;24.75;;;15.45;;
61702;SDS011;47622;47.726;3.298;2023-05-15T13:15:50;23.75;;;15.23;;
61702;SDS011;47622;47.726;3.298;2023-05-15T13:18:13;22.45;;;15.10;;
61702;SDS011;47622;47.726;3.298;2023-05-15T13:20:47;20.65;;;13.48;;
61702;SDS011;47622;47.726;3.298;2023-05-15T13:23:16;27.92;;;14.82;;
61702;SDS011;47622;47.726;3.298;2023-05-15T13:25:43;19.77;;;13.90;;
61702;SDS011;47622;47.726;3.298;2023-05-15T13:28:09;21.85;;;14.45;;
61702;SDS011;47622;47.726;3.298;2023-05-15T13:30:35;19.65;;;13.18;;
61702;SDS011;47622;47.726;3.298;2023-05-15T13:33:05;19.25;;;14.05;;
61702;SDS011;47622;47.726;3.298;2023-05-15T13:35:32;17.45;;;12.15;;
61702;SDS011;47622;47.726;3.298;2023-05-15T13:37:57;18.33;;;12.07;;
61702;SDS011;47622;47.726;3.298;2023-05-15T13:40:23;16.77;;;11.88;;
61702;SDS011;47622;47.726;3.298;2023-05-15T13:42:48;17.23;;;12.23;;
61702;SDS011;47622;47.726;3.298;2023-05-15T13:45:14;17.40;;;11.73;;
61702;SDS011;47622;47.726;3.298;2023-05-15T13:47:40;21.08;;;12.40;;
61702;SDS011;47622;47.726;3.298;2023-05-15T13:50:07;16.55;;;11.48;;
61702;SDS011;47622;47.726;3.298;2023-05-15T13:52:34;13.43;;;10.68;;
61702;SDS011;47622;47.726;3.298;2023-05-15T13:55:00;11.93;;;9.73;;
61702;SDS011;47622;47.726;3.298;2023-05-15T13:57:26;14.80;;;10.18;;
61702;SDS011;47622;47.726;3.298;2023-05-15T13:59:53;14.48;;;9.63;;
61702;SDS011;47622;47.726;3.298;2023-05-15T14:02:18;13.00;;;9.93;;
61702;SDS011;47622;47.726;3.298;2023-05-15T14:04:45;15.88;;;9.60;;
61702;SDS011;47622;47.726;3.298;2023-05-15T14:07:11;13.57;;;10.05;;
61702;SDS011;47622;47.726;3.298;2023-05-15T14:09:37;11.10;;;9.25;;
61702;SDS011;47622;47.726;3.298;2023-05-15T14:12:02;12.40;;;8.85;;
61702;SDS011;47622;47.726;3.298;2023-05-15T14:14:28;11.57;;;8.50;;
61702;SDS011;47622;47.726;3.298;2023-05-15T14:16:53;12.98;;;9.57;;
61702;SDS011;47622;47.726;3.298;2023-05-15T14:19:19;10.75;;;8.32;;
61702;SDS011;47622;47.726;3.298;2023-05-15T14:21:44;10.63;;;9.02;;
61702;SDS011;47622;47.726;3.298;2023-05-15T14:24:10;11.50;;;8.80;;
61702;SDS011;47622;47.726;3.298;2023-05-15T14:26:35;10.57;;;8.50;;
61702;SDS011;47622;47.726;3.298;2023-05-15T14:29:01;12.65;;;7.72;;
61702;SDS011;47622;47.726;3.298;2023-05-15T14:31:27;11.57;;;8.13;;
61702;SDS011;47622;47.726;3.298;2023-05-15T14:33:52;10.68;;;8.30;;
61702;SDS011;47622;47.726;3.298;2023-05-15T14:36:19;11.60;;;7.95;;
61702;SDS011;47622;47.726;3.298;2023-05-15T14:38:45;9.15;;;7.07;;
61702;SDS011;47622;47.726;3.298;2023-05-15T14:41:12;9.60;;;7.20;;
61702;SDS011;47622;47.726;3.298;2023-05-15T14:43:38;9.75;;;6.53;;
61702;SDS011;47622;47.726;3.298;2023-05-15T14:46:04;9.07;;;6.80;;
61702;SDS011;47622;47.726;3.298;2023-05-15T14:48:29;11.93;;;7.38;;
61702;SDS011;47622;47.726;3.298;2023-05-15T14:50:58;8.90;;;6.95;;
61702;SDS011;47622;47.726;3.298;2023-05-15T14:53:24;7.22;;;6.40;;
61702;SDS011;47622;47.726;3.298;2023-05-15T14:55:50;8.60;;;6.95;;
61702;SDS011;47622;47.726;3.298;2023-05-15T14:58:16;11.98;;;7.20;;
61702;SDS011;47622;47.726;3.298;2023-05-15T15:00:42;15.18;;;9.07;;
61702;SDS011;47622;47.726;3.298;2023-05-15T15:03:07;12.32;;;9.70;;
61702;SDS011;47622;47.726;3.298;2023-05-15T15:05:33;13.77;;;9.82;;
61702;SDS011;47622;47.726;3.298;2023-05-15T15:07:59;12.90;;;9.13;;
61702;SDS011;47622;47.726;3.298;2023-05-15T15:10:34;14.10;;;10.10;;